createdAt,value
2018-12-27T00:01:46.977Z,64.47
2018-12-27T00:04:16.228Z,63.96
2018-12-27T00:06:45.428Z,63.64
2018-12-27T00:11:49.607Z,63.66
2018-12-27T00:14:37.781Z,63.83
2018-12-27T00:17:25.978Z,63.57
2018-12-27T00:19:55.160Z,63.55
2018-12-27T00:22:24.692Z,63.31
2018-12-27T00:24:54.248Z,63.33
2018-12-27T00:27:23.457Z,63.27
2018-12-27T00:29:52.631Z,63.44
2018-12-27T00:32:21.940Z,63.03
2018-12-27T00:34:51.267Z,62.84
2018-12-27T00:37:20.591Z,62.83
2018-12-27T00:39:49.930Z,62.77
2018-12-27T00:42:19.232Z,62.72
2018-12-27T00:44:48.531Z,62.66
2018-12-27T00:47:17.854Z,62.46
2018-12-27T00:49:47.147Z,62.65
2018-12-27T00:52:16.474Z,62.39
2018-12-27T00:54:45.907Z,62.64
2018-12-27T00:57:15.228Z,62.85
2018-12-27T00:59:44.559Z,62.94
2018-12-27T01:02:13.873Z,62.97
2018-12-27T01:04:43.219Z,62.83
2018-12-27T01:07:12.527Z,62.70
2018-12-27T01:09:41.837Z,62.69
2018-12-27T01:12:11.168Z,62.61
2018-12-27T01:14:40.481Z,62.29
2018-12-27T01:17:09.818Z,62.26
2018-12-27T01:19:39.132Z,62.04
2018-12-27T01:22:08.735Z,61.73
2018-12-27T01:24:38.045Z,61.72
2018-12-27T01:27:07.383Z,61.89
2018-12-27T01:29:37.011Z,62.08
2018-12-27T01:32:06.823Z,61.78
2018-12-27T01:34:36.163Z,61.72
2018-12-27T01:37:05.525Z,61.67
2018-12-27T01:39:34.840Z,61.89
2018-12-27T01:42:04.144Z,61.74
2018-12-27T01:44:33.530Z,61.31
2018-12-27T01:47:02.789Z,61.38
2018-12-27T01:49:32.128Z,61.28
2018-12-27T01:52:01.444Z,61.13
2018-12-27T01:54:30.783Z,61.02
2018-12-27T01:57:00.096Z,61.08
2018-12-27T01:59:29.436Z,60.96
2018-12-27T02:01:59.106Z,60.78
2018-12-27T02:04:28.748Z,61.00
2018-12-27T02:06:58.063Z,61.04
2018-12-27T02:09:27.397Z,60.88
2018-12-27T02:11:56.707Z,60.79
2018-12-27T02:14:26.039Z,60.87
2018-12-27T02:16:55.351Z,60.96
2018-12-27T02:19:24.683Z,60.83
2018-12-27T02:21:53.995Z,60.92
2018-12-27T02:24:23.330Z,60.96
2018-12-27T02:26:52.958Z,61.15
2018-12-27T02:29:22.306Z,60.89
2018-12-27T02:31:52.275Z,60.76
2018-12-27T02:34:21.604Z,60.83
2018-12-27T02:36:50.940Z,61.04
2018-12-27T02:41:55.224Z,61.03
2018-12-27T02:44:24.565Z,60.99
2018-12-27T02:46:53.882Z,60.84
2018-12-27T02:49:23.525Z,60.63
2018-12-27T02:51:52.829Z,60.70
2018-12-27T02:54:22.160Z,60.50
2018-12-27T02:56:51.463Z,60.62
2018-12-27T03:01:57.494Z,60.79
2018-12-27T03:04:26.829Z,60.56
2018-12-27T03:06:56.134Z,60.44
2018-12-27T03:09:25.466Z,60.29
2018-12-27T03:11:54.790Z,60.32
2018-12-27T03:14:24.119Z,60.66
2018-12-27T03:16:53.803Z,60.58
2018-12-27T03:19:23.147Z,60.61
2018-12-27T03:21:52.809Z,60.58
2018-12-27T03:24:22.146Z,60.48
2018-12-27T03:26:51.536Z,60.54
2018-12-27T03:32:01.838Z,60.66
2018-12-27T03:34:31.165Z,60.69
2018-12-27T03:37:00.500Z,60.57
2018-12-27T03:39:29.832Z,60.58
2018-12-27T03:41:59.130Z,60.45
2018-12-27T03:44:28.475Z,60.35
2018-12-27T03:46:57.790Z,60.20
2018-12-27T03:49:27.135Z,60.40
2018-12-27T03:51:56.720Z,60.54
2018-12-27T03:54:26.138Z,60.54
2018-12-27T03:56:55.449Z,60.62
2018-12-27T03:59:24.795Z,60.61
2018-12-27T04:01:54.449Z,60.75
2018-12-27T04:04:24.124Z,60.74
2018-12-27T04:06:53.442Z,60.91
2018-12-27T04:09:22.784Z,61.16
2018-12-27T04:11:52.103Z,61.48
2018-12-27T04:14:21.730Z,61.41
2018-12-27T04:16:50.912Z,61.46
2018-12-27T04:19:20.120Z,61.08
2018-12-27T04:21:49.314Z,60.56
2018-12-27T04:24:57.917Z,60.56
2018-12-27T04:27:27.095Z,60.39
2018-12-27T04:29:56.303Z,60.44
2018-12-27T04:33:04.875Z,60.43
2018-12-27T04:35:34.097Z,60.63
2018-12-27T04:38:03.296Z,60.76
2018-12-27T04:40:32.518Z,60.62
2018-12-27T04:43:41.371Z,60.71
2018-12-27T04:46:10.583Z,60.59
2018-12-27T04:48:39.797Z,60.43
2018-12-27T04:51:27.983Z,60.04
2018-12-27T04:53:57.160Z,60.16
2018-12-27T04:56:26.724Z,60.15
2018-12-27T04:58:55.908Z,59.83
2018-12-27T05:01:25.126Z,59.81
2018-12-27T05:03:54.624Z,59.54
2018-12-27T05:06:23.833Z,59.65
2018-12-27T05:08:53.028Z,59.83
2018-12-27T05:11:22.505Z,59.82
2018-12-27T05:13:51.677Z,59.75
2018-12-27T05:16:20.983Z,59.66
2018-12-27T05:18:50.173Z,59.84
2018-12-27T05:21:19.372Z,59.75
2018-12-27T05:23:48.550Z,59.66
2018-12-27T05:26:17.763Z,59.51
2018-12-27T05:28:46.982Z,59.59
2018-12-27T05:31:16.192Z,59.89
2018-12-27T05:33:45.372Z,59.60
2018-12-27T05:36:14.612Z,59.41
2018-12-27T05:38:43.819Z,59.58
2018-12-27T05:41:13.395Z,59.67
2018-12-27T05:43:42.915Z,59.70
2018-12-27T05:46:12.129Z,59.95
2018-12-27T05:48:41.303Z,60.04
2018-12-27T05:51:10.921Z,60.32
2018-12-27T05:53:40.208Z,60.27
2018-12-27T05:56:09.825Z,60.44
2018-12-27T05:58:39.014Z,60.42
2018-12-27T06:01:08.243Z,60.28
2018-12-27T06:03:37.419Z,60.40
2018-12-27T06:06:06.638Z,60.51
2018-12-27T06:08:35.819Z,60.39
2018-12-27T06:11:05.029Z,59.95
2018-12-27T06:13:34.216Z,60.29
2018-12-27T06:16:03.420Z,60.28
2018-12-27T06:18:32.605Z,60.33
2018-12-27T06:21:01.806Z,60.38
2018-12-27T06:23:30.984Z,60.51
2018-12-27T06:26:00.571Z,60.63
2018-12-27T06:28:29.749Z,60.74
2018-12-27T06:30:58.958Z,60.61
2018-12-27T06:33:28.136Z,60.40
2018-12-27T06:35:57.354Z,60.18
2018-12-27T06:38:26.532Z,60.07
2018-12-27T06:40:55.735Z,60.15
2018-12-27T06:43:24.940Z,60.32
2018-12-27T06:45:54.488Z,60.47
2018-12-27T06:48:23.819Z,60.51
2018-12-27T06:50:52.994Z,60.51
2018-12-27T06:53:22.208Z,60.61
2018-12-27T06:55:51.390Z,60.62
2018-12-27T06:58:20.607Z,60.82
2018-12-27T07:00:49.785Z,60.88
2018-12-27T07:03:19.006Z,61.09
2018-12-27T07:05:48.189Z,61.08
2018-12-27T07:08:17.399Z,61.25
2018-12-27T07:10:46.585Z,61.39
2018-12-27T07:13:15.794Z,61.04
2018-12-27T07:15:45.269Z,60.99
2018-12-27T07:18:14.471Z,60.82
2018-12-27T07:20:43.667Z,60.71
2018-12-27T07:23:12.871Z,60.62
2018-12-27T07:25:42.060Z,60.77
2018-12-27T07:28:11.271Z,60.54
2018-12-27T07:30:40.454Z,60.67
2018-12-27T07:33:09.957Z,60.50
2018-12-27T07:35:39.706Z,60.41
2018-12-27T07:38:08.909Z,60.60
2018-12-27T07:40:38.119Z,60.42
2018-12-27T07:43:07.339Z,60.57
2018-12-27T07:45:36.511Z,60.31
2018-12-27T07:48:06.070Z,60.43
2018-12-27T07:50:35.252Z,60.01
2018-12-27T07:53:04.454Z,60.04
2018-12-27T07:55:33.706Z,60.09
2018-12-27T07:58:02.905Z,60.00
2018-12-27T08:00:32.089Z,59.87
2018-12-27T08:03:01.302Z,59.75
2018-12-27T08:05:30.483Z,59.73
2018-12-27T08:07:59.705Z,60.18
2018-12-27T08:10:28.870Z,60.39
2018-12-27T08:12:58.347Z,60.65
2018-12-27T08:15:27.558Z,60.20
2018-12-27T08:17:56.734Z,59.72
2018-12-27T08:20:25.939Z,59.69
2018-12-27T08:22:55.251Z,59.33
2018-12-27T08:25:24.448Z,58.93
2018-12-27T08:27:53.632Z,59.05
2018-12-27T08:30:22.817Z,58.90
2018-12-27T08:32:51.992Z,58.85
2018-12-27T08:35:21.541Z,58.68
2018-12-27T08:37:50.712Z,58.75
2018-12-27T08:40:19.912Z,59.22
2018-12-27T08:42:49.113Z,59.54
2018-12-27T08:45:18.319Z,59.83
2018-12-27T08:47:47.638Z,59.96
2018-12-27T08:50:16.841Z,59.99
2018-12-27T08:53:05.099Z,59.89
2018-12-27T08:55:34.312Z,60.01
2018-12-27T08:58:03.485Z,60.13
2018-12-27T09:00:32.677Z,60.43
2018-12-27T09:03:01.895Z,60.14
2018-12-27T09:05:31.061Z,59.94
2018-12-27T09:08:00.598Z,60.32
2018-12-27T09:10:30.143Z,60.12
2018-12-27T09:12:59.322Z,59.55
2018-12-27T09:15:28.865Z,60.09
2018-12-27T09:17:58.055Z,59.89
2018-12-27T09:20:27.255Z,59.65
2018-12-27T09:22:56.424Z,59.67
2018-12-27T09:25:25.630Z,59.49
2018-12-27T09:27:55.162Z,59.39
2018-12-27T09:30:24.373Z,59.26
2018-12-27T09:32:53.928Z,59.22
2018-12-27T09:35:26.467Z,58.83
2018-12-27T09:37:54.049Z,58.62
2018-12-27T09:40:23.400Z,58.11
2018-12-27T09:42:52.619Z,58.12
2018-12-27T09:45:21.790Z,57.91
2018-12-27T09:47:50.975Z,57.59
2018-12-27T09:50:20.209Z,57.63
2018-12-27T09:52:49.382Z,57.24
2018-12-27T09:55:18.582Z,57.07
2018-12-27T09:57:47.764Z,56.66
2018-12-27T10:00:16.967Z,55.99
2018-12-27T10:02:46.491Z,56.27
2018-12-27T10:05:15.695Z,56.19
2018-12-27T10:07:44.878Z,55.96
2018-12-27T10:10:14.086Z,55.92
2018-12-27T10:12:43.261Z,55.54
2018-12-27T10:15:12.889Z,55.18
2018-12-27T10:17:42.071Z,54.96
2018-12-27T10:20:11.277Z,54.83
2018-12-27T10:22:40.447Z,54.60
2018-12-27T10:25:09.649Z,54.91
2018-12-27T10:27:39.281Z,54.90
2018-12-27T10:30:48.344Z,54.74
2018-12-27T10:33:17.746Z,54.79
2018-12-27T10:35:47.103Z,54.71
2018-12-27T10:38:56.431Z,54.67
2018-12-27T10:41:25.680Z,54.41
2018-12-27T10:43:54.927Z,54.15
2018-12-27T10:46:24.148Z,54.20
2018-12-27T10:48:53.612Z,54.05
2018-12-27T10:51:22.788Z,53.79
2018-12-27T10:53:51.995Z,53.31
2018-12-27T10:56:21.195Z,53.55
2018-12-27T10:58:50.953Z,53.33
2018-12-27T11:01:20.451Z,53.12
2018-12-27T11:03:49.663Z,52.97
2018-12-27T11:06:18.967Z,52.38
2018-12-27T11:08:48.173Z,51.95
2018-12-27T11:11:17.346Z,51.61
2018-12-27T11:13:47.990Z,52.01
2018-12-27T11:16:17.523Z,53.09
2018-12-27T11:18:47.130Z,53.68
2018-12-27T11:21:16.309Z,53.93
2018-12-27T11:23:45.516Z,54.67
2018-12-27T11:26:14.703Z,55.23
2018-12-27T11:28:43.917Z,55.80
2018-12-27T11:31:13.100Z,55.89
2018-12-27T11:33:42.328Z,56.01
2018-12-27T11:36:17.214Z,55.45
2018-12-27T11:38:42.439Z,55.18
2018-12-27T11:41:11.648Z,54.78
2018-12-27T11:43:40.865Z,54.68
2018-12-27T11:46:10.047Z,54.33
2018-12-27T11:48:39.233Z,54.44
2018-12-27T11:51:08.803Z,54.74
2018-12-27T11:53:39.405Z,54.61
2018-12-27T11:56:08.589Z,54.38
2018-12-27T11:58:38.047Z,54.32
2018-12-27T12:01:07.550Z,54.32
2018-12-27T12:03:36.732Z,54.43
2018-12-27T12:06:06.064Z,54.28
2018-12-27T12:08:35.242Z,54.50
2018-12-27T12:11:04.427Z,54.72
2018-12-27T12:13:33.647Z,55.06
2018-12-27T12:16:03.150Z,55.14
2018-12-27T12:18:32.351Z,55.28
2018-12-27T12:21:01.533Z,55.46
2018-12-27T12:23:30.746Z,55.55
2018-12-27T12:25:59.940Z,55.41
2018-12-27T12:28:29.131Z,55.36
2018-12-27T12:30:58.336Z,55.24
2018-12-27T12:33:27.838Z,55.29
2018-12-27T12:35:57.053Z,55.24
2018-12-27T12:38:26.335Z,55.31
2018-12-27T12:40:55.944Z,55.62
2018-12-27T12:43:25.128Z,55.87
2018-12-27T12:45:54.337Z,55.83
2018-12-27T12:48:23.525Z,55.71
2018-12-27T12:50:52.790Z,55.75
2018-12-27T12:53:21.983Z,55.70
2018-12-27T12:55:51.199Z,55.78
2018-12-27T12:58:20.403Z,57.38
2018-12-27T13:00:49.586Z,57.09
2018-12-27T13:03:18.799Z,55.98
2018-12-27T13:05:48.306Z,55.74
2018-12-27T13:08:17.487Z,55.89
2018-12-27T13:10:46.699Z,55.92
2018-12-27T13:13:15.884Z,55.74
2018-12-27T13:15:45.099Z,56.06
2018-12-27T13:18:14.727Z,56.40
2018-12-27T13:20:44.231Z,56.63
2018-12-27T13:23:13.437Z,56.62
2018-12-27T13:25:43.885Z,56.64
2018-12-27T13:28:13.568Z,56.51
2018-12-27T13:30:42.754Z,56.62
2018-12-27T13:33:11.944Z,56.64
2018-12-27T13:35:41.307Z,56.88
2018-12-27T13:38:10.559Z,56.96
2018-12-27T13:40:39.784Z,57.04
2018-12-27T13:43:09.263Z,57.34
2018-12-27T13:45:38.457Z,57.43
2018-12-27T13:48:07.667Z,57.52
2018-12-27T13:50:36.849Z,57.45
2018-12-27T13:53:06.065Z,57.50
2018-12-27T13:55:35.256Z,58.13
2018-12-27T13:58:05.184Z,57.90
2018-12-27T14:00:35.376Z,57.88
2018-12-27T14:03:04.602Z,58.12
2018-12-27T14:05:34.191Z,59.10
2018-12-27T14:08:03.376Z,58.64
2018-12-27T14:10:32.588Z,58.24
2018-12-27T14:13:01.786Z,56.88
2018-12-27T14:15:31.071Z,55.44
2018-12-27T14:18:00.268Z,51.23
2018-12-27T14:20:29.485Z,48.54
2018-12-27T14:22:58.670Z,49.44
2018-12-27T14:25:27.878Z,51.40
2018-12-27T14:27:57.061Z,53.07
2018-12-27T14:30:26.269Z,54.58
2018-12-27T14:32:55.780Z,55.80
2018-12-27T14:35:25.000Z,56.74
2018-12-27T14:37:54.224Z,57.62
2018-12-27T14:40:23.406Z,58.18
2018-12-27T14:42:52.936Z,58.63
2018-12-27T14:45:22.148Z,59.00
2018-12-27T14:47:51.342Z,59.37
2018-12-27T14:50:20.556Z,60.11
2018-12-27T14:52:49.745Z,60.29
2018-12-27T14:55:18.955Z,60.50
2018-12-27T14:57:48.470Z,60.68
2018-12-27T15:00:17.700Z,61.35
2018-12-27T15:02:46.901Z,61.80
2018-12-27T15:05:16.087Z,62.16
2018-12-27T15:07:45.303Z,62.26
2018-12-27T15:10:14.498Z,62.43
2018-12-27T15:12:44.062Z,62.57
2018-12-27T15:15:13.257Z,62.80
2018-12-27T15:17:42.447Z,62.88
2018-12-27T15:20:11.669Z,63.04
2018-12-27T15:22:40.866Z,63.14
2018-12-27T15:25:10.092Z,63.30
2018-12-27T15:27:39.283Z,63.49
2018-12-27T15:30:08.858Z,63.65
2018-12-27T15:32:38.089Z,63.80
2018-12-27T15:35:07.660Z,64.05
2018-12-27T15:37:36.893Z,64.15
2018-12-27T15:40:06.233Z,64.25
2018-12-27T15:42:35.773Z,64.39
2018-12-27T15:45:05.094Z,64.17
2018-12-27T15:47:34.287Z,64.23
2018-12-27T15:50:03.869Z,64.18
2018-12-27T15:52:33.065Z,64.23
2018-12-27T15:55:02.273Z,64.10
2018-12-27T15:57:31.465Z,64.35
2018-12-27T16:00:00.724Z,64.44
2018-12-27T16:02:30.574Z,64.40
2018-12-27T16:04:59.799Z,64.29
2018-12-27T16:07:28.977Z,64.27
2018-12-27T16:09:58.193Z,64.43
2018-12-27T16:12:27.383Z,64.84
2018-12-27T16:14:56.609Z,64.36
2018-12-27T16:17:25.881Z,64.47
2018-12-27T16:19:55.063Z,63.93
2018-12-27T16:22:24.286Z,63.89
2018-12-27T16:24:53.478Z,64.03
2018-12-27T16:27:22.803Z,63.77
2018-12-27T16:32:47.523Z,63.84
2018-12-27T16:35:16.793Z,63.83
2018-12-27T16:37:45.979Z,63.86
2018-12-27T16:40:15.190Z,63.91
2018-12-27T16:42:44.376Z,64.30
2018-12-27T16:45:13.601Z,64.51
2018-12-27T16:47:43.220Z,64.65
2018-12-27T16:50:13.689Z,64.67
2018-12-27T16:52:43.393Z,64.66
2018-12-27T16:55:12.989Z,64.50
2018-12-27T16:57:42.606Z,64.37
2018-12-27T17:00:12.274Z,64.51
2018-12-27T17:02:41.931Z,64.52
2018-12-27T17:05:11.242Z,64.73
2018-12-27T17:07:40.740Z,64.90
2018-12-27T17:10:10.530Z,64.92
2018-12-27T17:12:40.209Z,65.05
2018-12-27T17:15:09.446Z,65.05
2018-12-27T17:17:38.652Z,65.17
2018-12-27T17:20:07.889Z,65.19
2018-12-27T17:22:37.077Z,65.17
2018-12-27T17:25:06.321Z,65.28
2018-12-27T17:27:35.504Z,65.39
2018-12-27T17:30:05.561Z,65.35
2018-12-27T17:32:34.750Z,65.34
2018-12-27T17:35:04.625Z,65.11
2018-12-27T17:37:34.687Z,65.13
2018-12-27T17:40:03.875Z,65.32
2018-12-27T17:42:33.549Z,65.45
2018-12-27T17:45:03.104Z,65.11
2018-12-27T17:47:32.529Z,65.07
2018-12-27T17:50:01.868Z,65.08
2018-12-27T17:52:31.145Z,65.06
2018-12-27T17:55:00.879Z,65.96
2018-12-27T17:57:30.127Z,66.63
2018-12-27T18:00:01.523Z,67.04
2018-12-27T18:02:31.579Z,67.30
2018-12-27T18:05:01.812Z,67.55
2018-12-27T18:07:30.989Z,67.06
2018-12-27T18:10:00.214Z,66.56
2018-12-27T18:12:29.408Z,65.92
2018-12-27T18:15:18.046Z,65.54
2018-12-27T18:17:47.239Z,65.48
2018-12-27T18:20:16.435Z,65.55
2018-12-27T18:22:46.047Z,65.58
2018-12-27T18:25:15.249Z,65.46
2018-12-27T18:27:44.449Z,65.57
2018-12-27T18:30:13.786Z,65.45
2018-12-27T18:32:42.961Z,65.56
2018-12-27T18:35:12.663Z,65.59
2018-12-27T18:37:42.380Z,65.17
2018-12-27T18:40:11.568Z,65.13
2018-12-27T18:42:40.769Z,65.67
2018-12-27T18:45:09.957Z,65.33
2018-12-27T18:47:39.181Z,64.92
2018-12-27T18:50:08.399Z,64.97
2018-12-27T18:52:38.022Z,65.10
2018-12-27T18:55:21.891Z,65.28
2018-12-27T18:57:40.811Z,65.16
2018-12-27T19:00:11.528Z,65.15
2018-12-27T19:02:42.139Z,65.17
2018-12-27T19:05:11.671Z,65.28
2018-12-27T19:07:44.796Z,65.59
2018-12-27T19:10:11.818Z,65.35
2018-12-27T19:13:19.130Z,65.18
2018-12-27T19:16:07.367Z,65.03
2018-12-27T19:18:43.073Z,64.58
2018-12-27T19:21:21.567Z,64.87
2018-12-27T19:23:51.250Z,65.00
2018-12-27T19:26:20.940Z,64.95
2018-12-27T19:28:50.584Z,65.13
2018-12-27T19:31:20.225Z,65.04
2018-12-27T19:33:49.410Z,65.04
2018-12-27T19:36:18.936Z,65.17
2018-12-27T19:38:48.173Z,65.22
2018-12-27T19:41:17.439Z,65.25
2018-12-27T19:43:46.631Z,65.22
2018-12-27T19:46:15.972Z,65.14
2018-12-27T19:48:45.801Z,65.13
2018-12-27T19:51:15.152Z,65.19
2018-12-27T19:53:44.713Z,65.15
2018-12-27T19:56:14.027Z,65.07
2018-12-27T19:58:55.423Z,65.06
2018-12-27T20:01:14.286Z,65.05
2018-12-27T20:03:43.962Z,65.06
2018-12-27T20:06:13.152Z,65.02
2018-12-27T20:08:42.468Z,65.07
2018-12-27T20:11:11.683Z,65.05
2018-12-27T20:13:40.940Z,65.16
2018-12-27T20:16:10.458Z,64.99
2018-12-27T20:18:39.966Z,65.43
2018-12-27T20:21:09.475Z,65.12
2018-12-27T20:23:39.088Z,65.26
2018-12-27T20:26:08.295Z,65.11
2018-12-27T20:28:37.482Z,65.74
2018-12-27T20:31:06.713Z,65.42
2018-12-27T20:33:54.823Z,65.04
2018-12-27T20:36:24.075Z,65.09
2018-12-27T20:38:53.264Z,65.03
2018-12-27T20:41:22.466Z,65.07
2018-12-27T20:43:51.703Z,64.90
2018-12-27T20:46:20.902Z,64.96
2018-12-27T20:48:50.089Z,64.88
2018-12-27T20:51:19.292Z,65.12
2018-12-27T20:53:48.597Z,65.05
2018-12-27T20:56:17.939Z,65.12
2018-12-27T20:58:47.117Z,64.98
2018-12-27T21:01:16.303Z,64.93
2018-12-27T21:03:45.516Z,64.92
2018-12-27T21:06:14.715Z,64.96
2018-12-27T21:08:43.895Z,65.16
2018-12-27T21:11:13.121Z,65.70
2018-12-27T21:13:42.299Z,65.56
2018-12-27T21:16:11.640Z,65.41
2018-12-27T21:18:40.847Z,65.52
2018-12-27T21:21:10.024Z,66.62
2018-12-27T21:23:39.204Z,65.56
2018-12-27T21:26:08.426Z,65.23
2018-12-27T21:28:37.604Z,65.45
2018-12-27T21:31:06.788Z,65.15
2018-12-27T21:33:35.993Z,65.18
2018-12-27T21:36:05.253Z,65.07
2018-12-27T21:38:34.765Z,65.03
2018-12-27T21:41:03.952Z,65.27
2018-12-27T21:43:33.165Z,65.49
2018-12-27T21:46:02.351Z,65.68
2018-12-27T21:48:31.533Z,65.37
2018-12-27T21:51:00.748Z,65.30
2018-12-27T21:53:29.947Z,64.96
2018-12-27T21:55:59.130Z,64.78
2018-12-27T21:58:28.338Z,65.24
2018-12-27T22:00:57.521Z,65.42
2018-12-27T22:03:26.847Z,65.07
2018-12-27T22:05:56.036Z,65.07
2018-12-27T22:08:28.467Z,64.85
2018-12-27T22:10:56.160Z,65.41
2018-12-27T22:13:25.367Z,64.87
2018-12-27T22:15:54.944Z,64.92
2018-12-27T22:18:24.185Z,64.88
2018-12-27T22:20:53.679Z,64.99
2018-12-27T22:23:22.897Z,64.72
2018-12-27T22:25:52.084Z,64.96
2018-12-27T22:28:21.584Z,64.62
2018-12-27T22:30:50.792Z,64.73
2018-12-27T22:33:19.981Z,64.85
2018-12-27T22:35:49.199Z,64.84
2018-12-27T22:38:18.403Z,65.12
2018-12-27T22:40:47.598Z,65.41
2018-12-27T22:43:16.800Z,65.81
2018-12-27T22:45:45.984Z,66.10
2018-12-27T22:48:15.178Z,66.29
2018-12-27T22:50:44.384Z,66.11
2018-12-27T22:53:13.577Z,65.94
2018-12-27T22:56:31.208Z,65.52
2018-12-27T22:59:00.520Z,65.59
2018-12-27T23:01:29.785Z,65.59
2018-12-27T23:03:59.004Z,65.66
2018-12-27T23:06:28.189Z,65.62
2018-12-27T23:08:57.403Z,65.62
2018-12-27T23:11:26.611Z,65.18
2018-12-27T23:13:56.083Z,65.28
2018-12-27T23:16:25.268Z,65.75
2018-12-27T23:18:54.484Z,65.64
2018-12-27T23:21:23.663Z,66.18
2018-12-27T23:23:52.879Z,66.01
2018-12-27T23:26:22.068Z,65.59
2018-12-27T23:31:39.434Z,65.10
2018-12-27T23:34:27.609Z,65.19
2018-12-27T23:36:56.819Z,64.80
2018-12-27T23:39:25.996Z,65.67
2018-12-27T23:41:55.242Z,65.00
2018-12-27T23:44:24.449Z,65.40
2018-12-27T23:46:54.041Z,65.32
2018-12-27T23:49:23.254Z,64.81
2018-12-27T23:51:52.738Z,64.71
2018-12-27T23:54:21.937Z,65.46
2018-12-27T23:56:51.142Z,64.63
2018-12-27T23:59:20.330Z,64.39
